Nearby METAR Reports

 

KPMD - Palmdale, California, USA
Distance from station: NNE 12mi, 19km
Updated: Tue, 23-Apr-2019 12:53am PDT
Clear
Clear
 Wind from SSW
Wind: SSW 8 mph , 13 km/h
Temperature: 54°F , 12°C
Dew Point: 36°F , 2°C
Humidity: 51%
Barometer: 30.05 inHg , 1017.6 hPa
Clouds: Clear
Visibility: 10 miles , 16 km
2019/04/23 07:53 KPMD 230753Z AUTO 21007KT 10SM CLR 12/02 A3005 RMK AO2 SLP155 T01220017 402720061
KWJF - Lancaster/Fox, California, USA
Distance from station: N 17mi, 27km
Updated: Tue, 23-Apr-2019 12:56am PDT
Clear
Clear
 Wind from calm
Wind: Calm
Temperature: 52°F , 11°C
Dew Point: 36°F , 2°C
Humidity: 54%
Barometer: 30.04 inHg , 1017.3 hPa
Clouds: Clear
Visibility: 10 miles , 16 km
2019/04/23 07:56 KWJF 230756Z AUTO 00000KT 10SM CLR 11/02 A3004 RMK AO2 SLP162 T01060017 402670050
 
KMWS - Mount Wilson, California, USA
Distance from station: SSE 18mi, 30km
Updated: Wed, 13-May-2015 6:45am PDT
NOT Current

 Wind from S
Wind: S 3 mph , 6 km/h, Gust: 5 mph , 7 km/h
Temperature: 43°F , 6°C
Dew Point: -0°F , -18°C
Humidity: 16%
2015/05/13 13:45 KMWS 131345Z 18003G04KT 06/M18 RMK SNOW DEPTH 1.00
KWHP - La / Whiteman, California, USA
Distance from station: SW 21mi, 34km
Updated: Mon, 22-Apr-2019 7:50pm PDT
NOT Current
Clear
Clear
 Wind from SW
Wind: SW 8 mph , 13 km/h
Temperature: 73°F , 23°C
Dew Point: 43°F , 6°C
Humidity: 33%
Barometer: 29.94 inHg , 1013.9 hPa
Clouds: Clear
Visibility: 10 miles , 16 km
2019/04/23 02:50 KWHP 230250Z 22007KT 10SM SKC 23/06 A2994 RMK LAST
 
KBUR - Burbank, California, USA
Distance from station: SSW 22mi, 35km
Updated: Tue, 23-Apr-2019 12:53am PDT
Clear
Clear
 Wind from SE
Wind: SE 3 mph , 6 km/h
Temperature: 59°F , 15°C
Dew Point: 54°F , 12°C
Humidity: 82%
Barometer: 29.97 inHg , 1014.9 hPa
Clouds: Clear
Visibility: 10 miles , 16 km
2019/04/23 07:53 KBUR 230753Z 13003KT 10SM CLR 15/12 A2997 RMK AO2 SLP140 T01500117 402440106 $
KVNY - Van Nuys, California, USA
Distance from station: SW 25mi, 40km
Updated: Tue, 23-Apr-2019 12:51am PDT
Clear
Clear
 Wind from calm
Wind: Calm
Temperature: 61°F , 16°C
Dew Point: 52°F , 11°C
Humidity: 72%
Barometer: 29.97 inHg , 1014.9 hPa
Clouds: Clear
Visibility: 10 miles , 16 km
2019/04/23 07:51 KVNY 230751Z AUTO 00000KT 10SM CLR 16/11 A2997 RMK AO2 SLP143 T01560111 402780106
 
KEDW - Edwards Afb, California, USA
Distance from station: NNE 33mi, 53km
Updated: Tue, 23-Apr-2019 12:58am PDT
Partly cloudy
Partly cloudy
 Wind from SSW
Wind: SSW 6 mph , 9 km/h
Temperature: 59°F , 15°C
Dew Point: 36°F , 2°C
Humidity: 42%
Barometer: 30.01 inHg , 1016.3 hPa
Clouds: Partly cloudy
Visibility: 10 miles , 16 km
Cloud details: Partly cloudy 11000 ft
2019/04/23 07:58 KEDW 230758Z AUTO 21005KT 10SM SCT110 15/02 A3001 RMK AO2 SLP146 T01510019 402700068
KSMO - Santa Monica, California, USA
Distance from station: SSW 35mi, 57km
Updated: Tue, 23-Apr-2019 12:51am PDT
Clear
Clear
 Wind from calm
Wind: Calm
Temperature: 57°F , 14°C
Dew Point: 54°F , 12°C
Humidity: 88%
Barometer: 29.98 inHg , 1015.2 hPa
Clouds: Clear
Visibility: 9 miles , 14 km
2019/04/23 07:51 KSMO 230751Z AUTO 00000KT 9SM CLR 14/12 A2998 RMK AO2 SLP151 T01440117 401780111
 
KLAX - Los Angeles, California, USA
Distance from station: SSW 39mi, 63km
Updated: Tue, 23-Apr-2019 12:53am PDT
Clear
Clear
 Wind from varies
Wind: varies 3 mph , 6 km/h
Temperature: 59°F , 15°C
Dew Point: 54°F , 12°C
Humidity: 82%
Barometer: 29.98 inHg , 1015.2 hPa
Clouds: Clear
Visibility: 10 miles , 16 km
2019/04/23 07:53 KLAX 230753Z VRB03KT 10SM CLR 15/12 A2998 RMK AO2 SLP149 T01500117 401890117
KMHV - Mojave, California, USA
Distance from station: N 41mi, 66km
Updated: Tue, 23-Apr-2019 1:20am PDT
Clear
Clear
 Wind from NW
Wind: NW 9 mph , 15 km/h
Temperature: 61°F , 16°C
Dew Point: 34°F , 1°C
Humidity: 36%
Barometer: 30.04 inHg , 1017.3 hPa
Clouds: Clear
Visibility: 10 miles , 16 km
2019/04/23 08:20 KMHV 230820Z AUTO 32008KT 10SM CLR 16/01 A3004 RMK A01
 
KFUL - Fullerton, California, USA
Distance from station: SSE 44mi, 70km
Updated: Tue, 23-Apr-2019 12:53am PDT
Clear
Clear
 Wind from calm
Wind: Calm
Temperature: 59°F , 15°C
Dew Point: 52°F , 11°C
Humidity: 77%
Barometer: 29.97 inHg , 1014.9 hPa
Clouds: Clear
Visibility: 10 miles , 16 km
2019/04/23 07:53 KFUL 230753Z AUTO 00000KT 10SM CLR 15/11 A2997 RMK AO2 SLP148 T01500111 402440117
KONT - Ontario, California, USA
Distance from station: SE 45mi, 72km
Updated: Tue, 23-Apr-2019 12:53am PDT
Clear
Clear
 Wind from SE
Wind: SE 3 mph , 6 km/h
Temperature: 63°F , 17°C
Dew Point: 55°F , 13°C
Humidity: 77%
Barometer: 29.98 inHg , 1015.2 hPa
Clouds: Clear
Visibility: 10 miles , 16 km
2019/04/23 07:53 KONT 230753Z 13003KT 10SM CLR 17/13 A2998 RMK AO2 SLP142 T01670128 402830111 $
 
KLGB - Long Beach, California, USA
Distance from station: S 46mi, 74km
Updated: Tue, 23-Apr-2019 12:53am PDT
Clear
Clear
 Wind from SSE
Wind: SSE 3 mph , 6 km/h
Temperature: 61°F , 16°C
Dew Point: 55°F , 13°C
Humidity: 83%
Barometer: 29.98 inHg , 1015.2 hPa
Clouds: Clear
Visibility: 10 miles , 16 km
2019/04/23 07:53 KLGB 230753Z AUTO 15003KT 10SM CLR 16/13 A2998 RMK AO2 SLP150 T01560128 402280117
KVCV - Victorville, California, USA
Distance from station: E 46mi, 74km
Updated: Mon, 22-Apr-2019 7:45pm PDT
NOT Current
Clear
Clear
 Wind from NNE
Wind: NNE 9 mph , 15 km/h
Barometer: 30.00 inHg , 1015.9 hPa
Clouds: Clear
Visibility: 10 miles , 16 km
2019/04/23 02:45 KVCV 230245Z 03008KT 10SM SKC A3000
 
KTSP - Tehachapi, California, USA
Distance from station: NNW 48mi, 77km
Updated: Tue, 23-Apr-2019 1:35am PDT
Clear
Clear
 Wind from calm
Wind: Calm
Temperature: 41°F , 5°C
Dew Point: 34°F , 1°C
Humidity: 76%
Barometer: 30.14 inHg , 1020.7 hPa
Clouds: Clear
Visibility: 10 miles , 16 km
2019/04/23 08:35 KTSP 230835Z AUTO 00000KT 10SM CLR 05/01 A3014 RMK AO2